Palembang
Home > Kaskuser Regional > INDONESIA > SUMATERA > Palembang > ▓▓▒▒ Radar Cuaca Palembang dan Sekitarnya ▒▒▓▓
Total Views: 14903 Share : Facebook ShareFacebook Twitter ShareTwitter Google+ ShareGoogle+
Page 9 of 64 | ‹ First  < 4 5 6 7 8 9 10 11 12 13 14 >  Last ›

tobeli - 29/06/2011 09:26 PM
#161

Quote:
Original Posted By Arestullah
Jiyyaa,kalu otak tobok mah dak usa diragukan...

Pasti mendong selamonyo ngakaks

-------------------
apo kabar cuaca Palembang besok mang, kiro2bakal ujan dak e...


yosuda men ck itu otak ak keno gempa akibat pergerakan lempeng hammer:



norose:
dianabazz - 30/06/2011 08:49 AM
#162

▓▓▒▒ Radar Cuaca Palembang dan Sekitarnya ▒▒▓▓
dianabazz - 30/06/2011 09:01 AM
#163

T A F O R

FTID32 WIPP 290445
TAF WIPP 290440Z 2906/3006 13008KT 9999 SCT016 TEMPO 2908/2912 16005G15KT 5000 RA FEW018CB BKN015 TEMPO 2920/2924 00000KT 4000 HZ FEW015 BECMG 3001/3003 15008KT 9999 NSW SCT015=


Bingung cara bacanya???bingungs
klik aja Cara membaca TAFOR
dianabazz - 30/06/2011 12:46 PM
#164

▓▓▒▒ Radar Cuaca Palembang dan Sekitarnya ▒▒▓▓
dianabazz - 30/06/2011 12:49 PM
#165

T A F O R

FTID32 WIPP 300445
TAF WIPP 300430Z 3006/0106 16008KT 9999 SCT015 TEMPO 3008/3012 VRB10KT 6000 -RA FEW018CB BKN015 BECMG 3014/3016 00000KT 8000 SCT015 TEMPO 3020/3024 4000 HZ FEW015 BECMG 0101/0103 17008KT 9999 NSW SCT015=


Bingung cara bacanya???bingungs
klik aja Cara membaca TAFOR
wisnu.ks - 30/06/2011 01:22 PM
#166

napo musim kemarau masih ujan \( \( \(
dwata - 01/07/2011 01:54 PM
#167

hari ini dak ado perkiraan cuaca ye bingung
dianabazz - 01/07/2011 06:46 PM
#168

T A F O R

FTID32 WIPP 011035
TAF WIPP 011030Z 0112/0212 14006KT 9999 SCT015 TEMPO 0119/0124 4000 HZ SCT012 BECMG 0201/0203 13008KT 9999 SCT015 TEMPO 0206/0211 09006G18KT 5000 -TSRA FEW018CB BKN016=

Bingung cara bacanya???bingungs
klik aja Cara membaca TAFOR
dianabazz - 01/07/2011 06:51 PM
#169

Quote:
Original Posted By wisnu.ks
napo musim kemarau masih ujan \( \( \(

memang masih ado ujan mang, liat di depan post 4

Quote:
Original Posted By dwata
hari ini dak ado perkiraan cuaca ye bingung

lah dari kemaren mang di depan
tobeli - 01/07/2011 06:53 PM
#170

besok ujan ak nk kondangan \(\(
dianabazz - 01/07/2011 07:03 PM
#171

Quote:
Original Posted By tobeli
besok ujan ak nk kondangan \(\(


paling gerimis bae bik, gek kuliat dulu buat besok lah ado po blm
dianabazz - 01/07/2011 07:05 PM
#172

▓▓▒▒ Radar Cuaca Palembang dan Sekitarnya ▒▒▓▓
tobeli - 01/07/2011 07:17 PM
#173

Quote:
Original Posted By dianabazz


paling gerimis bae bik, gek kuliat dulu buat besok lah ado po blm


po tu ap? reti ny bsk hrs bw payung \(▓▓▒▒ Radar Cuaca Palembang dan Sekitarnya ▒▒▓▓
dianabazz - 01/07/2011 07:34 PM
#174

Quote:
Original Posted By tobeli
po tu ap? reti ny bsk hrs bw payung \(▓▓▒▒ Radar Cuaca Palembang dan Sekitarnya ▒▒▓▓


po tu yo apo
tobeli - 01/07/2011 08:31 PM
#175

Quote:
Original Posted By dianabazz


po tu yo apo


akakaka.. malu nye, dak konek otak ak td▓▓▒▒ Radar Cuaca Palembang dan Sekitarnya ▒▒▓▓
tobeli - 01/07/2011 08:33 PM
#176

Maap dopost dak sengajo nian \(▓▓▒▒ Radar Cuaca Palembang dan Sekitarnya ▒▒▓▓
mangga.mudo - 02/07/2011 03:39 PM
#177

lapor kak hr ni cerah D/

sun:▓▓▒▒ Radar Cuaca Palembang dan Sekitarnya ▒▒▓▓
BonBonJr - 02/07/2011 05:04 PM
#178

geloo panasnyo hari ne....capedes
mangga.mudo - 02/07/2011 07:05 PM
#179

hari senen ujan dak kak
dianabazz - 04/07/2011 01:08 PM
#180

Quote:
Original Posted By dianabazz
T A F O R

FTID31 WIPP 040415
TAF WIPP 040400Z 0406/0506 13008KT 9999 SCT017 TEMPO 0408/0412 12006G15KT 6000 -RA FEW018CB BKN016 TEMPO 0420/0424 00000KT 5000 -RA SCT012 BECMG 0501/0503 13007KT 9999 SCT015=

Bingung cara bacanya???bingungs
klik aja Cara membaca TAFOR
Page 9 of 64 | ‹ First  < 4 5 6 7 8 9 10 11 12 13 14 >  Last ›
Home > Kaskuser Regional > INDONESIA > SUMATERA > Palembang > ▓▓▒▒ Radar Cuaca Palembang dan Sekitarnya ▒▒▓▓